Time;durP1;ratioP1;P1;durP2;ratioP2;P2;SDS_P1;SDS_P2;PMS_P1;PMS_P2;Temp;Humidity;BMP_temperature;BMP_pressure;BME280_temperature;BME280_humidity;BME280_pressure;Samples;Min_cycle;Max_cycle;Signal;HPM_P1;HPM_P2
2023/09/13 00:01:17;;;;;;;12.80;5.80;;;16.90;99.90;;;;;;4940718;29;20220;-89
2023/09/13 00:03:47;;;;;;;11.05;5.45;;;16.90;99.90;;;;;;4960829;28;20278;-89
2023/09/13 00:06:16;;;;;;;10.25;5.75;;;16.90;99.90;;;;;;4944042;28;20197;-88
2023/09/13 00:08:44;;;;;;;11.23;5.80;;;17.00;99.90;;;;;;4934570;28;20188;-89
2023/09/13 00:11:11;;;;;;;11.82;5.68;;;16.90;99.90;;;;;;4953651;28;20232;-88
2023/09/13 00:13:39;;;;;;;13.07;6.25;;;16.90;99.90;;;;;;4964930;28;20220;-89
2023/09/13 00:16:06;;;;;;;13.70;6.57;;;16.90;99.90;;;;;;4940678;29;20756;-88
2023/09/13 00:18:34;;;;;;;16.48;7.47;;;16.90;99.90;;;;;;4953098;28;20208;-90
2023/09/13 00:21:01;;;;;;;12.15;6.22;;;16.80;99.90;;;;;;4937163;28;20238;-87
2023/09/13 00:23:29;;;;;;;15.25;6.93;;;16.80;99.90;;;;;;4934166;28;20223;-89
2023/09/13 00:25:57;;;;;;;13.68;6.18;;;16.80;99.90;;;;;;4944411;28;20750;-89
2023/09/13 00:28:24;;;;;;;10.63;6.40;;;16.90;99.90;;;;;;4936733;29;20592;-89
2023/09/13 00:30:52;;;;;;;9.85;6.75;;;16.90;99.90;;;;;;4925565;28;20196;-89
2023/09/13 00:33:20;;;;;;;15.75;6.00;;;16.90;99.90;;;;;;4926418;28;20199;-89
2023/09/13 00:35:47;;;;;;;13.00;6.40;;;16.80;99.90;;;;;;4927018;28;20192;-89
2023/09/13 00:38:15;;;;;;;14.90;6.07;;;16.70;99.90;;;;;;4940262;28;20203;-89
2023/09/13 00:40:43;;;;;;;11.95;6.57;;;16.80;99.90;;;;;;4952714;28;20235;-88
2023/09/13 00:43:10;;;;;;;15.35;6.57;;;16.80;99.90;;;;;;4926625;28;20206;-88
2023/09/13 00:45:39;;;;;;;9.75;5.93;;;16.80;99.90;;;;;;4934415;28;20203;-89
2023/09/13 00:48:08;;;;;;;12.07;6.43;;;16.70;99.90;;;;;;4928666;28;20662;-88
2023/09/13 00:50:37;;;;;;;12.38;7.22;;;16.70;99.90;;;;;;4958936;28;20818;-88
2023/09/13 00:53:20;;;;;;;12.82;6.65;;;16.60;99.90;;;;;;4941714;29;20185;-88
2023/09/13 00:55:50;;;;;;;11.05;6.05;;;16.60;99.90;;;;;;4952369;28;20192;-89
2023/09/13 00:58:18;;;;;;;13.43;5.75;;;16.70;99.90;;;;;;4942789;28;20184;-88
2023/09/13 01:00:48;;;;;;;12.23;7.07;;;16.70;99.90;;;;;;4936281;28;20291;-89
2023/09/13 01:03:16;;;;;;;17.15;6.10;;;16.70;99.90;;;;;;4932562;28;20203;-90
2023/09/13 01:05:49;;;;;;;11.95;5.82;;;16.70;99.90;;;;;;4936975;28;20222;-89
2023/09/13 01:08:16;;;;;;;12.65;7.70;;;16.70;99.90;;;;;;4941135;28;20199;-89
2023/09/13 01:10:44;;;;;;;14.57;6.85;;;16.70;99.90;;;;;;4935267;28;20188;-89
2023/09/13 01:13:11;;;;;;;13.55;6.97;;;16.70;99.90;;;;;;4941663;29;20681;-89
2023/09/13 01:16:01;;;;;;;17.55;7.25;;;16.70;99.90;;;;;;4924156;29;20197;-88
2023/09/13 01:19:12;;;;;;;13.13;5.80;;;16.60;99.90;;;;;;4957760;28;20189;-88
2023/09/13 01:22:01;;;;;;;9.65;5.30;;;16.60;99.90;;;;;;4942940;28;20250;-88
2023/09/13 01:24:39;;;;;;;12.80;6.63;;;16.60;99.90;;;;;;4942152;28;20595;-89
2023/09/13 01:27:30;;;;;;;10.07;6.22;;;16.60;99.90;;;;;;4954342;28;20192;-90
2023/09/13 01:30:00;;;;;;;10.52;6.65;;;16.50;99.90;;;;;;4901055;28;20658;-87
2023/09/13 01:32:28;;;;;;;11.23;6.25;;;16.50;99.90;;;;;;4959395;28;20247;-89
2023/09/13 01:34:56;;;;;;;13.95;6.60;;;16.40;99.90;;;;;;4940640;28;20201;-88
2023/09/13 01:37:23;;;;;;;10.23;6.00;;;16.40;99.90;;;;;;4952315;28;20196;-89
2023/09/13 01:39:51;;;;;;;13.55;5.68;;;16.50;99.90;;;;;;4946021;28;20236;-89
2023/09/13 01:42:19;;;;;;;11.10;6.15;;;16.40;99.90;;;;;;4932548;29;20212;-89
2023/09/13 01:44:47;;;;;;;15.07;6.05;;;16.40;99.90;;;;;;4935981;28;20247;-89
2023/09/13 01:47:17;;;;;;;10.88;6.30;;;16.50;99.90;;;;;;4963485;28;20609;-88
2023/09/13 01:49:46;;;;;;;13.32;6.72;;;16.40;99.90;;;;;;4937135;28;20205;-87
2023/09/13 01:52:14;;;;;;;10.73;6.07;;;16.50;99.90;;;;;;4953237;29;20188;-89
2023/09/13 01:54:42;;;;;;;9.73;5.55;;;16.40;99.90;;;;;;4945043;28;20196;-90
2023/09/13 01:57:09;;;;;;;14.75;6.88;;;16.40;99.90;;;;;;4962836;28;20189;-88
2023/09/13 01:59:37;;;;;;;11.20;6.22;;;16.40;99.90;;;;;;4945500;29;20197;-87
2023/09/13 02:02:04;;;;;;;12.50;7.07;;;16.40;99.90;;;;;;4952340;28;20223;-87
2023/09/13 02:04:33;;;;;;;11.32;7.38;;;16.40;99.90;;;;;;4964844;28;20187;-88
2023/09/13 02:07:01;;;;;;;10.88;6.70;;;16.30;99.90;;;;;;4965045;28;20200;-89
2023/09/13 02:09:29;;;;;;;13.45;7.63;;;16.30;99.90;;;;;;4952891;29;20288;-89
2023/09/13 02:11:57;;;;;;;14.70;6.45;;;16.20;99.90;;;;;;4939156;29;20637;-89
2023/09/13 02:14:24;;;;;;;11.80;7.07;;;16.20;99.90;;;;;;4945897;28;20791;-88
2023/09/13 02:16:52;;;;;;;12.23;7.05;;;16.20;99.90;;;;;;4936167;29;20211;-88
2023/09/13 02:19:23;;;;;;;10.90;7.28;;;16.20;99.90;;;;;;4953502;28;20316;-89
2023/09/13 02:21:51;;;;;;;11.00;6.60;;;16.20;99.90;;;;;;4952527;28;20213;-89
2023/09/13 02:24:19;;;;;;;13.82;7.35;;;16.30;99.90;;;;;;4944443;28;20204;-89
2023/09/13 02:26:47;;;;;;;16.02;7.15;;;16.20;99.90;;;;;;4934794;28;20218;-88
2023/09/13 02:29:14;;;;;;;14.60;7.60;;;16.10;99.90;;;;;;4942882;28;20203;-89
2023/09/13 02:31:42;;;;;;;17.63;7.70;;;16.20;99.90;;;;;;4959897;28;20197;-89
2023/09/13 02:34:09;;;;;;;14.50;7.85;;;16.20;99.90;;;;;;4955223;28;20223;-89
2023/09/13 02:36:37;;;;;;;11.60;7.43;;;16.00;99.90;;;;;;4929223;28;20203;-89
2023/09/13 02:39:04;;;;;;;11.90;7.78;;;16.00;99.90;;;;;;4937046;28;20636;-90
2023/09/13 02:41:32;;;;;;;12.20;7.60;;;16.10;99.90;;;;;;4938115;28;20721;-88
2023/09/13 02:43:59;;;;;;;14.20;7.97;;;16.00;99.90;;;;;;4947022;29;20765;-89
2023/09/13 02:46:27;;;;;;;16.38;7.75;;;15.90;99.90;;;;;;4964193;28;20192;-88
2023/09/13 02:48:55;;;;;;;13.52;7.18;;;15.80;99.90;;;;;;4958984;28;20216;-88
2023/09/13 02:51:22;;;;;;;15.15;7.32;;;15.90;99.90;;;;;;4954754;28;20192;-90
2023/09/13 02:53:50;;;;;;;15.38;8.25;;;16.00;99.90;;;;;;4938375;28;20194;-89
2023/09/13 02:56:17;;;;;;;14.35;8.45;;;15.90;99.90;;;;;;4938805;28;20188;-89
2023/09/13 02:58:45;;;;;;;13.18;7.05;;;15.90;99.90;;;;;;4934906;28;20200;-89
2023/09/13 03:01:13;;;;;;;12.90;8.23;;;15.90;99.90;;;;;;4953803;28;20192;-89
2023/09/13 03:03:42;;;;;;;13.73;8.15;;;15.90;99.90;;;;;;4943071;28;20283;-87
2023/09/13 03:06:13;;;;;;;14.70;7.57;;;15.90;99.90;;;;;;4954419;28;20271;-89
2023/09/13 03:08:42;;;;;;;14.27;8.20;;;15.90;99.90;;;;;;4920499;29;20203;-88
2023/09/13 03:11:14;;;;;;;12.55;7.38;;;15.90;99.90;;;;;;4924064;29;20256;-87
2023/09/13 03:13:43;;;;;;;13.82;8.00;;;15.90;99.90;;;;;;4938144;29;20197;-89
2023/09/13 03:16:15;;;;;;;14.73;7.63;;;15.90;99.90;;;;;;4948714;28;20188;-90
2023/09/13 03:18:44;;;;;;;14.95;7.82;;;15.90;99.90;;;;;;4953430;28;20252;-90
2023/09/13 03:21:14;;;;;;;13.25;7.40;;;15.90;99.90;;;;;;4937733;28;20196;-88
2023/09/13 03:23:45;;;;;;;13.45;8.48;;;15.90;99.90;;;;;;4950602;29;20216;-88
2023/09/13 03:26:22;;;;;;;16.27;7.90;;;16.00;99.90;;;;;;4930132;28;20621;-88
2023/09/13 03:28:54;;;;;;;12.98;7.10;;;15.90;99.90;;;;;;4927449;28;20573;-88
2023/09/13 03:31:24;;;;;;;14.30;8.68;;;15.90;99.90;;;;;;4932018;28;20762;-89
2023/09/13 03:33:54;;;;;;;18.30;8.68;;;15.90;99.90;;;;;;4945680;28;20742;-88
2023/09/13 03:36:27;;;;;;;13.43;7.70;;;15.80;99.90;;;;;;4945625;28;20212;-88
2023/09/13 03:38:57;;;;;;;15.52;8.85;;;15.80;99.90;;;;;;4949957;29;20244;-89
2023/09/13 03:41:26;;;;;;;12.60;7.90;;;15.80;99.90;;;;;;4936340;28;20647;-88
2023/09/13 03:43:54;;;;;;;15.45;8.50;;;15.70;99.90;;;;;;4935132;28;20224;-88
2023/09/13 03:46:22;;;;;;;15.85;8.38;;;15.70;99.90;;;;;;4944326;28;20188;-87
2023/09/13 03:48:54;;;;;;;13.20;7.97;;;15.70;99.90;;;;;;4940226;28;20672;-87
2023/09/13 03:51:22;;;;;;;13.70;8.15;;;15.70;99.90;;;;;;4934953;29;20224;-88
2023/09/13 03:53:50;;;;;;;16.35;8.77;;;15.70;99.90;;;;;;4951332;28;20192;-88
2023/09/13 03:56:18;;;;;;;13.27;7.95;;;15.60;99.90;;;;;;4944313;28;20259;-89
2023/09/13 03:58:45;;;;;;;13.98;8.30;;;15.50;99.90;;;;;;4953903;28;20196;-89
2023/09/13 04:01:13;;;;;;;12.00;8.32;;;15.50;99.90;;;;;;4927990;28;20237;-85
2023/09/13 04:03:41;;;;;;;14.07;7.88;;;15.60;99.90;;;;;;4947943;28;20228;-89
2023/09/13 04:06:10;;;;;;;16.42;8.70;;;15.60;99.90;;;;;;4952818;28;20224;-90
2023/09/13 04:08:37;;;;;;;21.45;9.77;;;15.60;99.90;;;;;;4928384;28;20238;-88
2023/09/13 04:11:05;;;;;;;19.33;8.90;;;15.50;99.90;;;;;;4947825;28;20219;-87
2023/09/13 04:13:34;;;;;;;11.85;7.82;;;15.50;99.90;;;;;;4939375;28;20196;-90
2023/09/13 04:16:05;;;;;;;13.52;9.65;;;15.50;99.90;;;;;;4946082;28;20199;-87
2023/09/13 04:18:34;;;;;;;14.50;8.95;;;15.50;99.90;;;;;;4928956;29;20291;-88
2023/09/13 04:21:02;;;;;;;15.70;8.25;;;15.50;99.90;;;;;;4946341;28;20279;-88
2023/09/13 04:23:30;;;;;;;13.75;8.18;;;15.50;99.90;;;;;;4961012;28;20212;-90
2023/09/13 04:25:58;;;;;;;12.57;8.65;;;15.60;99.90;;;;;;4944134;28;20260;-88
2023/09/13 04:28:26;;;;;;;17.05;8.48;;;15.60;99.90;;;;;;4954289;28;20192;-87
2023/09/13 04:30:57;;;;;;;14.38;9.55;;;15.60;99.90;;;;;;4935106;29;20193;-88
2023/09/13 04:33:49;;;;;;;13.60;7.97;;;15.50;99.90;;;;;;4945846;28;20199;-90
2023/09/13 04:36:19;;;;;;;13.35;8.20;;;15.40;99.90;;;;;;4926663;29;20267;-90
2023/09/13 04:38:48;;;;;;;14.38;8.70;;;15.40;99.90;;;;;;4925009;29;20208;-87
2023/09/13 04:41:17;;;;;;;12.75;7.80;;;15.40;99.90;;;;;;4934037;28;20233;-89
2023/09/13 04:43:44;;;;;;;13.45;8.75;;;15.50;99.90;;;;;;4963573;28;20208;-88
2023/09/13 04:46:15;;;;;;;13.50;8.13;;;15.50;99.90;;;;;;4944774;28;20195;-88
2023/09/13 04:48:43;;;;;;;11.45;7.57;;;15.50;99.90;;;;;;4945381;28;20207;-89
2023/09/13 04:51:11;;;;;;;10.98;7.90;;;15.50;99.90;;;;;;4929628;29;20228;-87
2023/09/13 04:53:39;;;;;;;16.15;9.55;;;15.50;99.90;;;;;;4947226;28;20196;-87
2023/09/13 04:56:08;;;;;;;14.98;9.52;;;15.60;99.90;;;;;;4935488;28;20219;-89
2023/09/13 04:58:45;;;;;;;16.08;8.30;;;15.50;99.90;;;;;;4935949;29;20192;-90
2023/09/13 05:01:12;;;;;;;19.33;10.07;;;15.60;99.90;;;;;;4930921;28;20679;-87
2023/09/13 05:03:40;;;;;;;15.75;9.30;;;15.60;99.90;;;;;;4942997;28;20207;-89
2023/09/13 05:06:08;;;;;;;17.75;10.38;;;15.60;99.90;;;;;;4933160;29;20227;-88
2023/09/13 05:08:37;;;;;;;18.98;11.38;;;15.60;99.90;;;;;;4960046;28;20931;-89
2023/09/13 05:11:05;;;;;;;16.30;10.25;;;15.60;99.90;;;;;;4958921;28;20723;-88
2023/09/13 05:13:33;;;;;;;12.75;9.50;;;15.60;99.90;;;;;;4952299;28;20202;-87
2023/09/13 05:16:00;;;;;;;17.48;9.88;;;15.60;99.90;;;;;;4944902;28;20188;-86
2023/09/13 05:18:28;;;;;;;18.00;10.25;;;15.60;99.90;;;;;;4937237;28;20196;-87
2023/09/13 05:20:56;;;;;;;13.15;9.25;;;15.60;99.90;;;;;;4950959;28;20188;-87
2023/09/13 05:23:23;;;;;;;14.35;9.70;;;15.70;99.90;;;;;;4961228;28;20205;-89
2023/09/13 05:25:55;;;;;;;20.58;11.35;;;15.70;99.90;;;;;;4960235;28;20216;-88
2023/09/13 05:28:24;;;;;;;14.65;10.20;;;15.70;99.90;;;;;;4937302;29;20199;-87
2023/09/13 05:30:52;;;;;;;18.90;10.80;;;15.70;99.90;;;;;;4945276;28;20662;-88
2023/09/13 05:33:19;;;;;;;15.70;10.23;;;15.70;99.90;;;;;;4961833;28;20268;-88
2023/09/13 05:35:47;;;;;;;21.63;12.38;;;15.70;99.90;;;;;;4937373;28;20197;-88
2023/09/13 05:38:14;;;;;;;18.77;11.65;;;15.70;99.90;;;;;;4943537;28;20196;-89
2023/09/13 05:40:42;;;;;;;19.27;11.63;;;15.80;99.90;;;;;;4935091;28;20255;-88
2023/09/13 05:43:10;;;;;;;16.63;10.65;;;15.80;99.90;;;;;;4962751;28;20219;-88
2023/09/13 05:45:37;;;;;;;18.05;11.70;;;15.80;99.90;;;;;;4959366;28;20678;-89
2023/09/13 05:48:05;;;;;;;21.02;11.88;;;15.80;99.90;;;;;;4953838;28;20725;-89
2023/09/13 05:50:33;;;;;;;23.02;11.15;;;15.80;99.90;;;;;;4944856;28;20192;-88
2023/09/13 05:53:00;;;;;;;17.85;10.82;;;15.80;99.90;;;;;;4947644;28;20202;-87
2023/09/13 05:55:28;;;;;;;17.00;11.23;;;15.80;99.90;;;;;;4964831;28;20540;-89
2023/09/13 05:57:55;;;;;;;18.58;11.23;;;15.90;99.90;;;;;;4952172;28;20275;-88
2023/09/13 06:00:23;;;;;;;18.98;11.20;;;15.90;99.90;;;;;;4943309;28;20200;-87
2023/09/13 06:02:50;;;;;;;21.73;12.85;;;15.90;99.90;;;;;;4961306;28;20678;-87
2023/09/13 06:05:18;;;;;;;18.83;12.00;;;15.90;99.90;;;;;;4962522;28;20190;-88
2023/09/13 06:07:45;;;;;;;18.92;12.45;;;15.80;99.90;;;;;;4934469;29;20196;-88
2023/09/13 06:10:13;;;;;;;22.40;12.40;;;15.70;99.90;;;;;;4937723;28;20216;-89
2023/09/13 06:12:41;;;;;;;19.38;13.15;;;15.80;99.90;;;;;;4951825;28;20244;-88
2023/09/13 06:15:09;;;;;;;24.95;12.38;;;15.80;99.90;;;;;;4952615;28;20223;-86
2023/09/13 06:17:36;;;;;;;21.50;13.77;;;15.90;99.90;;;;;;4958060;28;20200;-87
2023/09/13 06:20:05;;;;;;;18.65;12.25;;;15.90;99.90;;;;;;4944879;28;20286;-87
2023/09/13 06:22:32;;;;;;;18.38;12.98;;;16.00;99.90;;;;;;4962029;28;20208;-88
2023/09/13 06:25:00;;;;;;;21.05;12.27;;;16.00;99.90;;;;;;4934570;28;20193;-88
2023/09/13 06:27:34;;;;;;;19.45;12.02;;;16.00;99.90;;;;;;4960823;28;20240;-86
2023/09/13 06:30:02;;;;;;;18.35;12.85;;;16.00;99.90;;;;;;4959928;28;20195;-87
2023/09/13 06:32:31;;;;;;;20.27;12.52;;;16.00;99.90;;;;;;4951059;28;20736;-88
2023/09/13 06:35:11;;;;;;;23.30;13.23;;;15.90;99.90;;;;;;4954777;28;20262;-89
2023/09/13 06:37:43;;;;;;;21.40;13.15;;;16.00;99.90;;;;;;4950869;28;20191;-88
2023/09/13 06:40:13;;;;;;;21.10;13.73;;;16.00;99.90;;;;;;4956480;28;20227;-88
2023/09/13 06:42:42;;;;;;;22.15;12.93;;;16.10;99.90;;;;;;4937331;29;20680;-86
2023/09/13 06:45:27;;;;;;;23.70;14.43;;;16.20;99.90;;;;;;4965509;28;20199;-87
2023/09/13 06:47:57;;;;;;;22.15;14.25;;;16.20;99.90;;;;;;4965015;28;20184;-88
2023/09/13 06:50:25;;;;;;;24.60;13.80;;;16.20;99.90;;;;;;4956369;28;20204;-87
2023/09/13 06:53:13;;;;;;;19.80;13.55;;;16.20;99.90;;;;;;4944538;29;20214;-89
2023/09/13 06:56:00;;;;;;;19.48;13.32;;;16.30;99.90;;;;;;4940398;28;20207;-87
2023/09/13 06:58:32;;;;;;;24.27;13.15;;;16.40;99.90;;;;;;4955516;28;20188;-88
2023/09/13 07:01:02;;;;;;;22.95;13.63;;;16.40;99.90;;;;;;4963528;28;20199;-87
2023/09/13 07:03:32;;;;;;;22.35;14.43;;;16.50;99.90;;;;;;4944878;28;20223;-87
2023/09/13 07:06:02;;;;;;;20.23;13.85;;;16.60;99.90;;;;;;4963356;28;20189;-90
2023/09/13 07:08:29;;;;;;;20.00;13.07;;;16.60;99.90;;;;;;4942922;29;20204;-88
2023/09/13 07:10:57;;;;;;;21.83;13.38;;;16.70;99.90;;;;;;4941613;28;20200;-88
2023/09/13 07:13:26;;;;;;;18.15;12.55;;;16.70;99.90;;;;;;4956377;28;20279;-88
2023/09/13 07:15:53;;;;;;;20.42;13.23;;;16.80;99.90;;;;;;4952828;28;20195;-87
2023/09/13 07:18:21;;;;;;;21.90;14.23;;;16.90;99.90;;;;;;4940273;29;20197;-89
2023/09/13 07:20:48;;;;;;;25.17;13.98;;;16.90;99.90;;;;;;4946898;28;20204;-89
2023/09/13 07:23:16;;;;;;;23.92;14.65;;;17.00;99.90;;;;;;4962804;28;20296;-86
2023/09/13 07:25:48;;;;;;;20.40;14.02;;;17.00;99.90;;;;;;4936695;29;20271;-88
2023/09/13 07:28:16;;;;;;;24.17;14.25;;;17.00;99.90;;;;;;4952809;28;20246;-88
2023/09/13 07:30:44;;;;;;;20.73;13.68;;;17.10;99.90;;;;;;4949931;28;20199;-87
2023/09/13 07:33:11;;;;;;;22.55;13.98;;;17.20;99.90;;;;;;4952588;29;20201;-88
2023/09/13 07:35:39;;;;;;;23.42;14.77;;;17.20;99.90;;;;;;4947385;28;20650;-89
2023/09/13 07:38:07;;;;;;;22.52;14.15;;;17.30;99.90;;;;;;4942272;29;20200;-89
2023/09/13 07:40:34;;;;;;;24.50;15.10;;;17.30;99.90;;;;;;4953250;29;20256;-88
2023/09/13 07:43:02;;;;;;;19.65;14.02;;;17.30;99.90;;;;;;4938102;28;20216;-89
2023/09/13 07:45:33;;;;;;;21.38;14.82;;;17.40;99.90;;;;;;4938215;28;20196;-87
2023/09/13 07:48:04;;;;;;;20.83;13.90;;;17.50;99.90;;;;;;4951165;28;20891;-88
2023/09/13 07:50:38;;;;;;;26.20;14.32;;;17.50;99.90;;;;;;4940192;28;20187;-87
2023/09/13 07:53:10;;;;;;;22.50;15.40;;;17.50;99.90;;;;;;4947111;28;20251;-89
2023/09/13 07:55:39;;;;;;;21.52;14.35;;;17.70;99.90;;;;;;4964081;28;20602;-88
2023/09/13 07:58:07;;;;;;;27.02;15.40;;;17.70;99.90;;;;;;4962479;28;20197;-87
2023/09/13 08:00:35;;;;;;;26.33;14.60;;;17.80;99.90;;;;;;4936298;28;20205;-88
2023/09/13 08:03:03;;;;;;;21.38;15.52;;;17.90;99.90;;;;;;4963642;28;20217;-88
2023/09/13 08:05:31;;;;;;;23.67;14.13;;;17.90;99.90;;;;;;4943085;28;20201;-89
2023/09/13 08:07:59;;;;;;;23.80;14.70;;;18.00;99.90;;;;;;4948762;28;20218;-88
2023/09/13 08:10:27;;;;;;;24.73;14.43;;;18.00;99.90;;;;;;4943771;28;20200;-88
2023/09/13 08:12:55;;;;;;;21.92;15.07;;;18.20;99.90;;;;;;4938610;28;20307;-89
2023/09/13 08:15:22;;;;;;;22.38;15.73;;;18.20;99.90;;;;;;4953415;28;20220;-88
2023/09/13 08:18:10;;;;;;;22.75;14.35;;;18.20;99.90;;;;;;4954748;28;20184;-88
2023/09/13 08:20:37;;;;;;;22.67;15.40;;;18.30;99.90;;;;;;4950994;28;20261;-89
2023/09/13 08:23:05;;;;;;;23.00;15.57;;;18.40;99.90;;;;;;4937359;28;20211;-89
2023/09/13 08:25:32;;;;;;;21.45;14.43;;;18.60;99.90;;;;;;4938436;28;20744;-89
2023/09/13 08:28:00;;;;;;;21.05;15.27;;;18.60;99.90;;;;;;4951022;29;20197;-87
2023/09/13 08:30:27;;;;;;;22.92;15.07;;;18.60;99.90;;;;;;4959424;28;20185;-89
2023/09/13 08:32:55;;;;;;;21.75;15.38;;;18.70;99.90;;;;;;4936236;28;20200;-88
2023/09/13 08:35:22;;;;;;;20.38;14.50;;;18.80;99.90;;;;;;4953334;28;20816;-87
2023/09/13 08:37:50;;;;;;;21.13;15.73;;;18.80;99.90;;;;;;4951697;29;20195;-88
2023/09/13 08:40:18;;;;;;;23.98;15.70;;;19.00;99.90;;;;;;4943009;28;20929;-88
2023/09/13 08:42:47;;;;;;;26.20;16.40;;;19.10;99.90;;;;;;4951241;29;20247;-89
2023/09/13 08:45:14;;;;;;;21.65;14.80;;;19.30;99.90;;;;;;4950338;28;20196;-87
2023/09/13 08:47:44;;;;;;;23.45;15.50;;;19.20;99.90;;;;;;4938422;29;20204;-88
2023/09/13 08:50:28;;;;;;;26.45;16.42;;;19.30;99.90;;;;;;4957941;28;20224;-87
2023/09/13 08:53:00;;;;;;;25.15;15.98;;;19.30;99.90;;;;;;4946196;28;20199;-89
2023/09/13 08:55:28;;;;;;;23.70;15.93;;;19.30;99.90;;;;;;4953791;28;20200;-88
2023/09/13 08:57:56;;;;;;;22.10;15.73;;;19.60;99.90;;;;;;4948414;28;20228;-89
2023/09/13 09:00:26;;;;;;;23.75;16.27;;;19.60;99.90;;;;;;4954086;28;20215;-88
2023/09/13 09:02:57;;;;;;;23.58;16.55;;;19.70;99.90;;;;;;4967010;28;20191;-88
2023/09/13 09:05:27;;;;;;;23.40;15.88;;;19.70;99.90;;;;;;4958598;28;20217;-87
2023/09/13 09:07:57;;;;;;;22.55;16.38;;;19.70;99.90;;;;;;4954181;28;20275;-87
2023/09/13 09:10:25;;;;;;;24.67;15.88;;;19.90;99.90;;;;;;4953873;28;20215;-87
2023/09/13 09:12:57;;;;;;;26.45;16.30;;;19.90;99.90;;;;;;4960939;28;20192;-87
2023/09/13 09:15:26;;;;;;;28.55;16.00;;;20.00;99.90;;;;;;4937344;28;20542;-86
2023/09/13 09:17:56;;;;;;;22.90;15.93;;;20.00;99.90;;;;;;4943915;28;20188;-87
2023/09/13 09:20:29;;;;;;;26.63;16.15;;;20.00;99.90;;;;;;4950300;29;20197;-87
2023/09/13 09:22:58;;;;;;;24.52;16.48;;;20.20;99.90;;;;;;4938449;28;20681;-88
2023/09/13 09:25:30;;;;;;;21.33;16.20;;;20.20;99.90;;;;;;4945575;28;20180;-88
2023/09/13 09:27:57;;;;;;;23.85;16.27;;;20.10;99.90;;;;;;4952181;28;20192;-87
2023/09/13 09:30:32;;;;;;;24.23;18.15;;;20.30;99.90;;;;;;4944656;28;20184;-89
2023/09/13 09:33:05;;;;;;;25.88;15.98;;;20.40;99.90;;;;;;4952212;29;20196;-89
2023/09/13 09:35:34;;;;;;;22.20;16.63;;;20.30;99.90;;;;;;4952564;29;20290;-87
2023/09/13 09:38:03;;;;;;;23.40;17.65;;;20.40;99.90;;;;;;4948122;29;20188;-85
2023/09/13 09:40:39;;;;;;;24.45;17.15;;;20.50;99.90;;;;;;4939788;29;20228;-87
2023/09/13 09:43:08;;;;;;;27.45;16.67;;;20.60;99.90;;;;;;4951644;29;20196;-88
2023/09/13 09:45:36;;;;;;;23.48;17.17;;;20.80;99.90;;;;;;4939488;29;20193;-88
2023/09/13 09:48:04;;;;;;;25.38;17.08;;;20.80;99.90;;;;;;4945204;28;20191;-89
2023/09/13 09:50:32;;;;;;;25.80;16.98;;;20.80;99.90;;;;;;4943693;28;20195;-88
2023/09/13 09:53:06;;;;;;;20.58;15.45;;;20.80;99.90;;;;;;4957568;28;20203;-87
2023/09/13 09:55:35;;;;;;;28.90;16.20;;;20.80;99.90;;;;;;4945586;28;20279;-87
2023/09/13 09:58:03;;;;;;;21.13;15.95;;;20.80;99.90;;;;;;4943592;28;20195;-88
2023/09/13 10:00:42;;;;;;;27.90;16.83;;;20.90;99.90;;;;;;4951615;28;20192;-87
2023/09/13 10:03:15;;;;;;;21.60;15.13;;;21.10;99.90;;;;;;4953016;28;20227;-87
2023/09/13 10:06:10;;;;;;;25.00;16.08;;;21.20;99.90;;;;;;4944124;28;20200;-88
2023/09/13 10:08:46;;;;;;;23.80;15.23;;;21.30;99.90;;;;;;4965482;28;20190;-88
2023/09/13 10:11:23;;;;;;;24.20;15.73;;;21.50;99.90;;;;;;4964719;28;20202;-88
2023/09/13 10:13:51;;;;;;;22.75;16.10;;;21.50;99.90;;;;;;4943454;28;20415;-87
2023/09/13 10:16:18;;;;;;;26.10;16.40;;;21.60;99.90;;;;;;4964436;28;20276;-86
2023/09/13 10:18:50;;;;;;;23.25;16.00;;;21.60;99.90;;;;;;4968296;28;20212;-87
2023/09/13 10:21:27;;;;;;;22.83;16.58;;;21.70;99.90;;;;;;4938696;28;20198;-87
2023/09/13 10:24:06;;;;;;;23.77;15.88;;;21.80;99.90;;;;;;4954654;28;20287;-87
2023/09/13 10:26:35;;;;;;;22.80;16.13;;;21.90;99.90;;;;;;4948512;28;20283;-89
2023/09/13 10:29:15;;;;;;;20.27;16.15;;;21.90;99.90;;;;;;4948265;28;20189;-87
2023/09/13 10:31:48;;;;;;;26.90;16.10;;;21.90;99.90;;;;;;4965872;28;20204;-87
2023/09/13 10:34:25;;;;;;;23.08;16.90;;;22.10;99.90;;;;;;4948499;28;20192;-88
2023/09/13 10:37:18;;;;;;;22.30;15.70;;;22.20;99.90;;;;;;4946592;29;20192;-89
2023/09/13 10:39:56;;;;;;;21.67;16.75;;;22.20;99.90;;;;;;4948020;28;20312;-88
2023/09/13 10:42:25;;;;;;;25.13;17.15;;;22.20;99.90;;;;;;4939255;28;20727;-87
2023/09/13 10:44:54;;;;;;;27.52;16.92;;;22.50;99.90;;;;;;4937742;28;20213;-88
2023/09/13 10:47:22;;;;;;;21.83;16.17;;;22.50;99.90;;;;;;4965174;28;20193;-88
2023/09/13 10:49:50;;;;;;;27.38;16.10;;;22.50;99.90;;;;;;4953885;28;20674;-86
2023/09/13 10:52:18;;;;;;;26.90;16.42;;;22.70;99.90;;;;;;4955135;28;20282;-88
2023/09/13 10:54:47;;;;;;;23.10;16.80;;;22.70;99.90;;;;;;4947239;28;20192;-88
2023/09/13 10:57:16;;;;;;;21.40;15.90;;;22.80;99.90;;;;;;4940494;28;20192;-88
2023/09/13 10:59:45;;;;;;;22.23;16.27;;;22.90;99.90;;;;;;4963978;28;20218;-88
2023/09/13 11:02:13;;;;;;;22.58;15.95;;;23.00;99.90;;;;;;4936623;29;20220;-89
2023/09/13 11:04:41;;;;;;;22.75;15.90;;;22.90;99.90;;;;;;4945451;28;20209;-87
2023/09/13 11:07:08;;;;;;;21.77;15.68;;;23.10;99.90;;;;;;4963227;28;20184;-87
2023/09/13 11:09:36;;;;;;;25.77;16.70;;;23.30;99.90;;;;;;4939675;28;20567;-87
2023/09/13 11:12:04;;;;;;;23.55;16.35;;;23.10;99.90;;;;;;4955426;28;20221;-86
2023/09/13 11:14:32;;;;;;;22.55;16.42;;;23.20;99.90;;;;;;4961309;28;20192;-88
2023/09/13 11:17:38;;;;;;;23.10;16.52;;;23.40;99.90;;;;;;4965926;28;20224;-87
2023/09/13 11:20:37;;;;;;;28.15;15.88;;;23.50;99.90;;;;;;4955183;28;20199;-87
2023/09/13 11:23:10;;;;;;;22.33;15.65;;;23.50;99.90;;;;;;4957511;28;20189;-87
2023/09/13 11:26:02;;;;;;;28.20;15.95;;;23.50;99.90;;;;;;4933037;28;20196;-87
2023/09/13 11:28:37;;;;;;;23.88;16.42;;;23.70;99.90;;;;;;4965531;28;20310;-88
2023/09/13 11:31:07;;;;;;;23.92;15.95;;;23.70;99.90;;;;;;4960519;28;20274;-87
2023/09/13 11:33:46;;;;;;;26.27;15.38;;;23.70;99.90;;;;;;4947530;28;20198;-87
2023/09/13 11:36:17;;;;;;;21.92;15.93;;;23.90;99.90;;;;;;4964709;28;20198;-88
2023/09/13 11:38:49;;;;;;;23.83;16.55;;;23.90;99.90;;;;;;4945491;29;20295;-88
2023/09/13 11:41:17;;;;;;;21.08;16.33;;;24.10;99.90;;;;;;4965069;28;20283;-87
2023/09/13 11:43:45;;;;;;;23.05;15.80;;;24.30;99.90;;;;;;4961503;28;20202;-89
2023/09/13 11:46:30;;;;;;;18.77;15.82;;;24.40;99.90;;;;;;4952117;29;20196;-87
2023/09/13 11:49:00;;;;;;;20.50;15.90;;;24.20;99.90;;;;;;4951342;28;20192;-89
2023/09/13 11:51:33;;;;;;;22.73;15.73;;;24.30;99.90;;;;;;4953876;28;20188;-88
2023/09/13 11:54:15;;;;;;;28.38;17.00;;;24.40;99.90;;;;;;4953785;28;20279;-88
2023/09/13 11:56:45;;;;;;;20.45;15.57;;;24.50;99.90;;;;;;4959762;28;20742;-88
2023/09/13 11:59:16;;;;;;;20.95;14.90;;;24.30;99.90;;;;;;4954442;28;20841;-87
2023/09/13 12:01:49;;;;;;;20.98;16.42;;;24.50;99.90;;;;;;4962697;28;20189;-88
2023/09/13 12:04:24;;;;;;;21.38;15.82;;;24.40;99.90;;;;;;4943612;28;20279;-88
2023/09/13 12:06:55;;;;;;;23.02;15.95;;;24.50;99.90;;;;;;4946827;29;20311;-87
2023/09/13 12:09:26;;;;;;;26.63;16.23;;;24.40;99.90;;;;;;4940502;28;20184;-85
2023/09/13 12:11:58;;;;;;;22.38;15.90;;;24.40;99.90;;;;;;4947048;28;20543;-87
2023/09/13 12:14:33;;;;;;;26.83;16.30;;;24.30;99.90;;;;;;4945161;28;20197;-87
2023/09/13 12:17:03;;;;;;;23.92;16.33;;;24.40;99.90;;;;;;4933461;28;20200;-88
2023/09/13 12:19:36;;;;;;;23.77;15.50;;;24.50;99.90;;;;;;4945303;28;20208;-89
2023/09/13 12:22:04;;;;;;;23.38;16.02;;;24.50;99.90;;;;;;4961331;28;20195;-87
2023/09/13 12:24:31;;;;;;;26.58;16.75;;;24.70;99.90;;;;;;4937681;28;20226;-88
2023/09/13 12:26:59;;;;;;;24.83;16.48;;;24.70;99.90;;;;;;4937380;28;20772;-88
2023/09/13 12:29:26;;;;;;;23.73;15.55;;;24.60;99.90;;;;;;4945735;28;20199;-87
2023/09/13 12:31:57;;;;;;;24.48;16.15;;;24.60;99.90;;;;;;4937601;28;20243;-88
2023/09/13 12:34:25;;;;;;;20.30;15.75;;;24.70;99.90;;;;;;4961791;28;20188;-87
2023/09/13 12:36:55;;;;;;;24.85;15.73;;;24.60;99.90;;;;;;4962226;28;20188;-87
2023/09/13 12:39:23;;;;;;;34.35;17.23;;;24.70;99.90;;;;;;4953252;28;20184;-86
2023/09/13 12:41:50;;;;;;;25.80;15.68;;;24.70;99.90;;;;;;4951329;29;20200;-87
2023/09/13 12:44:19;;;;;;;21.50;15.75;;;24.80;99.90;;;;;;4950654;29;20557;-87
2023/09/13 12:46:51;;;;;;;25.98;15.88;;;25.00;99.90;;;;;;4943319;28;20592;-86